sensor_id;sensor_type;location;lat;lon;timestamp;pressure;altitude;pressure_sealevel;temperature;humidity
67840;BME280;54636;51.684;5.142;2022-09-02T00:00:15;101671.47;;;16.03;55.45
67840;BME280;54636;51.684;5.142;2022-09-02T00:02:41;101679.22;;;16.10;55.79
67840;BME280;54636;51.684;5.142;2022-09-02T00:05:07;101660.25;;;15.90;55.82
67840;BME280;54636;51.684;5.142;2022-09-02T00:07:32;101682.44;;;16.03;56.32
67840;BME280;54636;51.684;5.142;2022-09-02T00:09:57;101679.19;;;15.99;56.38
67840;BME280;54636;51.684;5.142;2022-09-02T00:12:24;101658.00;;;15.77;56.66
67840;BME280;54636;51.684;5.142;2022-09-02T00:14:50;101675.19;;;15.89;56.64
67840;BME280;54636;51.684;5.142;2022-09-02T00:17:15;101677.19;;;15.83;56.70
67840;BME280;54636;51.684;5.142;2022-09-02T00:19:40;101668.44;;;15.73;56.79
67840;BME280;54636;51.684;5.142;2022-09-02T00:22:06;101676.94;;;15.81;56.82
67840;BME280;54636;51.684;5.142;2022-09-02T00:24:31;101656.47;;;15.65;57.01
67840;BME280;54636;51.684;5.142;2022-09-02T00:26:57;101653.75;;;15.60;57.22
67840;BME280;54636;51.684;5.142;2022-09-02T00:29:24;101650.50;;;15.56;57.65
67840;BME280;54636;51.684;5.142;2022-09-02T00:31:50;101658.69;;;15.56;57.63
67840;BME280;54636;51.684;5.142;2022-09-02T00:34:15;101668.44;;;15.62;57.64
67840;BME280;54636;51.684;5.142;2022-09-02T00:36:41;101668.16;;;15.55;58.21
67840;BME280;54636;51.684;5.142;2022-09-02T00:39:07;101659.69;;;15.53;58.06
67840;BME280;54636;51.684;5.142;2022-09-02T00:41:34;101649.47;;;15.47;58.15
67840;BME280;54636;51.684;5.142;2022-09-02T00:44:06;101663.91;;;15.54;57.31
67840;BME280;54636;51.684;5.142;2022-09-02T00:46:32;101647.00;;;15.49;57.80
67840;BME280;54636;51.684;5.142;2022-09-02T00:49:08;101665.16;;;15.53;57.92
67840;BME280;54636;51.684;5.142;2022-09-02T00:52:08;101655.44;;;15.52;57.59
67840;BME280;54636;51.684;5.142;2022-09-02T00:54:40;101653.72;;;15.54;58.08
67840;BME280;54636;51.684;5.142;2022-09-02T00:57:10;101636.47;;;15.31;58.45
67840;BME280;54636;51.684;5.142;2022-09-02T00:59:42;101659.41;;;15.45;58.56
67840;BME280;54636;51.684;5.142;2022-09-02T01:02:10;101652.69;;;15.40;58.57
67840;BME280;54636;51.684;5.142;2022-09-02T01:04:36;101648.69;;;15.36;58.80
67840;BME280;54636;51.684;5.142;2022-09-02T01:07:01;101650.16;;;15.31;58.75
67840;BME280;54636;51.684;5.142;2022-09-02T01:09:27;101615.22;;;14.98;59.49
67840;BME280;54636;51.684;5.142;2022-09-02T01:11:55;101643.38;;;15.15;59.36
67840;BME280;54636;51.684;5.142;2022-09-02T01:14:24;101632.16;;;15.08;59.47
67840;BME280;54636;51.684;5.142;2022-09-02T01:16:54;101637.63;;;15.08;59.69
67840;BME280;54636;51.684;5.142;2022-09-02T01:19:26;101635.63;;;15.03;59.59
67840;BME280;54636;51.684;5.142;2022-09-02T01:21:54;101636.13;;;15.01;60.14
67840;BME280;54636;51.684;5.142;2022-09-02T01:24:23;101648.78;;;14.99;60.42
67840;BME280;54636;51.684;5.142;2022-09-02T01:26:51;101627.34;;;14.80;60.38
67840;BME280;54636;51.684;5.142;2022-09-02T01:29:17;101612.09;;;14.68;60.74
67840;BME280;54636;51.684;5.142;2022-09-02T01:31:43;101648.28;;;14.95;60.71
67840;BME280;54636;51.684;5.142;2022-09-02T01:34:08;101645.53;;;14.89;60.79
67840;BME280;54636;51.684;5.142;2022-09-02T01:36:39;101632.88;;;14.92;60.43
67840;BME280;54636;51.684;5.142;2022-09-02T01:39:05;101643.31;;;14.93;59.32
67840;BME280;54636;51.684;5.142;2022-09-02T01:41:31;101623.59;;;14.78;60.72
67840;BME280;54636;51.684;5.142;2022-09-02T01:43:56;101592.13;;;14.51;61.21
67840;BME280;54636;51.684;5.142;2022-09-02T01:46:22;101628.47;;;14.63;61.34
67840;BME280;54636;51.684;5.142;2022-09-02T01:48:49;101634.44;;;14.61;61.55
67840;BME280;54636;51.684;5.142;2022-09-02T01:51:16;101638.66;;;14.62;61.94
67840;BME280;54636;51.684;5.142;2022-09-02T01:53:42;101624.94;;;14.51;62.12
67840;BME280;54636;51.684;5.142;2022-09-02T01:56:07;101629.91;;;14.53;62.08
67840;BME280;54636;51.684;5.142;2022-09-02T01:58:33;101631.63;;;14.50;62.24
67840;BME280;54636;51.684;5.142;2022-09-02T02:01:03;101635.59;;;14.49;62.13
67840;BME280;54636;51.684;5.142;2022-09-02T02:03:28;101633.84;;;14.46;62.57
67840;BME280;54636;51.684;5.142;2022-09-02T02:05:54;101627.38;;;14.43;62.53
67840;BME280;54636;51.684;5.142;2022-09-02T02:08:20;101624.81;;;14.40;62.64
67840;BME280;54636;51.684;5.142;2022-09-02T02:10:45;101620.59;;;14.39;62.90
67840;BME280;54636;51.684;5.142;2022-09-02T02:13:11;101620.28;;;14.31;62.93
67840;BME280;54636;51.684;5.142;2022-09-02T02:15:38;101630.78;;;14.38;62.91
67840;BME280;54636;51.684;5.142;2022-09-02T02:18:05;101597.34;;;14.12;62.91
67840;BME280;54636;51.684;5.142;2022-09-02T02:20:30;101591.81;;;14.06;63.02
67840;BME280;54636;51.684;5.142;2022-09-02T02:22:56;101628.00;;;14.27;63.29
67840;BME280;54636;51.684;5.142;2022-09-02T02:25:21;101618.78;;;14.25;62.99
67840;BME280;54636;51.684;5.142;2022-09-02T02:27:47;101623.25;;;14.22;63.23
67840;BME280;54636;51.684;5.142;2022-09-02T02:30:14;101625.50;;;14.24;63.27
67840;BME280;54636;51.684;5.142;2022-09-02T02:32:41;101607.78;;;14.13;63.29
67840;BME280;54636;51.684;5.142;2022-09-02T02:35:08;101615.97;;;14.13;63.40
67840;BME280;54636;51.684;5.142;2022-09-02T02:37:34;101603.75;;;14.09;63.32
67840;BME280;54636;51.684;5.142;2022-09-02T02:39:59;101613.94;;;14.08;63.52
67840;BME280;54636;51.684;5.142;2022-09-02T02:42:24;101622.22;;;14.20;63.25
67840;BME280;54636;51.684;5.142;2022-09-02T02:44:50;101613.25;;;14.13;63.36
67840;BME280;54636;51.684;5.142;2022-09-02T02:47:16;101616.72;;;14.14;63.29
67840;BME280;54636;51.684;5.142;2022-09-02T02:49:42;101622.97;;;14.20;63.46
67840;BME280;54636;51.684;5.142;2022-09-02T02:52:09;101618.03;;;14.24;63.09
67840;BME280;54636;51.684;5.142;2022-09-02T02:54:35;101600.81;;;14.12;62.69
67840;BME280;54636;51.684;5.142;2022-09-02T02:57:01;101621.03;;;14.26;63.20
67840;BME280;54636;51.684;5.142;2022-09-02T02:59:27;101612.56;;;14.24;63.09
67840;BME280;54636;51.684;5.142;2022-09-02T03:01:53;101605.13;;;14.25;62.94
67840;BME280;54636;51.684;5.142;2022-09-02T03:04:19;101612.09;;;14.26;63.10
67840;BME280;54636;51.684;5.142;2022-09-02T03:06:44;101604.41;;;14.30;62.96
67840;BME280;54636;51.684;5.142;2022-09-02T03:09:10;101600.41;;;14.31;62.74
67840;BME280;54636;51.684;5.142;2022-09-02T03:11:35;101609.13;;;14.35;62.91
67840;BME280;54636;51.684;5.142;2022-09-02T03:14:00;101609.47;;;14.42;62.56
67840;BME280;54636;51.684;5.142;2022-09-02T03:16:26;101590.97;;;14.32;62.41
67840;BME280;54636;51.684;5.142;2022-09-02T03:18:52;101602.22;;;14.39;62.59
67840;BME280;54636;51.684;5.142;2022-09-02T03:21:17;101607.00;;;14.44;62.71
67840;BME280;54636;51.684;5.142;2022-09-02T03:23:47;101603.25;;;14.42;62.59
67840;BME280;54636;51.684;5.142;2022-09-02T03:26:15;101601.28;;;14.42;62.68
67840;BME280;54636;51.684;5.142;2022-09-02T03:28:42;101589.53;;;14.36;62.51
67840;BME280;54636;51.684;5.142;2022-09-02T03:31:13;101608.00;;;14.47;62.29
67840;BME280;54636;51.684;5.142;2022-09-02T03:33:39;101597.56;;;14.45;62.80
67840;BME280;54636;51.684;5.142;2022-09-02T03:36:04;101599.00;;;14.41;62.49
67840;BME280;54636;51.684;5.142;2022-09-02T03:38:30;101574.53;;;14.21;62.66
67840;BME280;54636;51.684;5.142;2022-09-02T03:40:55;101561.78;;;14.06;63.00
67840;BME280;54636;51.684;5.142;2022-09-02T03:43:21;101584.03;;;14.31;63.16
67840;BME280;54636;51.684;5.142;2022-09-02T03:45:46;101577.31;;;14.26;63.25
67840;BME280;54636;51.684;5.142;2022-09-02T03:48:12;101597.19;;;14.32;63.30
67840;BME280;54636;51.684;5.142;2022-09-02T03:50:40;101583.97;;;14.20;63.52
67840;BME280;54636;51.684;5.142;2022-09-02T03:53:07;101583.25;;;14.25;63.56
67840;BME280;54636;51.684;5.142;2022-09-02T03:55:33;101572.81;;;14.23;63.71
67840;BME280;54636;51.684;5.142;2022-09-02T03:57:59;101588.47;;;14.23;63.53
67840;BME280;54636;51.684;5.142;2022-09-02T04:00:26;101578.97;;;14.12;63.69
67840;BME280;54636;51.684;5.142;2022-09-02T04:02:54;101564.53;;;14.12;63.94
67840;BME280;54636;51.684;5.142;2022-09-02T04:05:21;101569.81;;;14.21;63.83
67840;BME280;54636;51.684;5.142;2022-09-02T04:07:49;101576.78;;;14.22;64.16
67840;BME280;54636;51.684;5.142;2022-09-02T04:10:17;101571.06;;;14.20;64.11
67840;BME280;54636;51.684;5.142;2022-09-02T04:12:43;101573.31;;;14.22;63.72
67840;BME280;54636;51.684;5.142;2022-09-02T04:15:10;101541.56;;;13.93;64.12
67840;BME280;54636;51.684;5.142;2022-09-02T04:17:37;101568.78;;;14.13;64.09
67840;BME280;54636;51.684;5.142;2022-09-02T04:20:05;101558.59;;;14.13;63.90
67840;BME280;54636;51.684;5.142;2022-09-02T04:22:31;101554.38;;;14.12;64.16
67840;BME280;54636;51.684;5.142;2022-09-02T04:24:56;101567.75;;;14.10;64.51
67840;BME280;54636;51.684;5.142;2022-09-02T04:27:22;101567.50;;;14.08;64.34
67840;BME280;54636;51.684;5.142;2022-09-02T04:29:47;101560.00;;;14.03;64.68
67840;BME280;54636;51.684;5.142;2022-09-02T04:32:12;101561.25;;;14.02;64.76
67840;BME280;54636;51.684;5.142;2022-09-02T04:34:38;101569.94;;;14.01;64.87
67840;BME280;54636;51.684;5.142;2022-09-02T04:37:03;101570.41;;;13.99;64.91
67840;BME280;54636;51.684;5.142;2022-09-02T04:39:28;101562.88;;;13.89;65.26
67840;BME280;54636;51.684;5.142;2022-09-02T04:41:54;101562.09;;;13.82;65.70
67840;BME280;54636;51.684;5.142;2022-09-02T04:44:19;101558.28;;;13.74;65.74
67840;BME280;54636;51.684;5.142;2022-09-02T04:46:45;101569.00;;;13.78;66.07
67840;BME280;54636;51.684;5.142;2022-09-02T04:49:10;101559.97;;;13.66;66.17
67840;BME280;54636;51.684;5.142;2022-09-02T04:51:36;101562.19;;;13.62;66.44
67840;BME280;54636;51.684;5.142;2022-09-02T04:54:01;101550.16;;;13.48;66.30
67840;BME280;54636;51.684;5.142;2022-09-02T04:56:28;101548.13;;;13.43;66.59
67840;BME280;54636;51.684;5.142;2022-09-02T04:58:55;101554.44;;;13.55;66.59
67840;BME280;54636;51.684;5.142;2022-09-02T05:01:23;101554.91;;;13.54;66.45
67840;BME280;54636;51.684;5.142;2022-09-02T05:03:52;101563.38;;;13.56;66.59
67840;BME280;54636;51.684;5.142;2022-09-02T05:06:23;101552.44;;;13.56;66.37
67840;BME280;54636;51.684;5.142;2022-09-02T05:08:51;101554.16;;;13.53;66.67
67840;BME280;54636;51.684;5.142;2022-09-02T05:11:18;101539.94;;;13.43;66.74
67840;BME280;54636;51.684;5.142;2022-09-02T05:13:50;101541.16;;;13.42;66.84
67840;BME280;54636;51.684;5.142;2022-09-02T05:16:20;101561.59;;;13.52;67.26
67840;BME280;54636;51.684;5.142;2022-09-02T05:18:47;101570.06;;;13.55;67.30
67840;BME280;54636;51.684;5.142;2022-09-02T05:21:12;101564.66;;;13.60;67.12
67840;BME280;54636;51.684;5.142;2022-09-02T05:23:38;101532.91;;;13.37;67.30
67840;BME280;54636;51.684;5.142;2022-09-02T05:26:05;101569.66;;;13.67;67.05
67840;BME280;54636;51.684;5.142;2022-09-02T05:28:31;101553.28;;;13.67;66.75
67840;BME280;54636;51.684;5.142;2022-09-02T05:31:05;101546.03;;;13.59;66.73
67840;BME280;54636;51.684;5.142;2022-09-02T05:33:32;101569.28;;;13.80;67.02
67840;BME280;54636;51.684;5.142;2022-09-02T05:35:57;101571.78;;;13.83;67.05
67840;BME280;54636;51.684;5.142;2022-09-02T05:38:23;101572.31;;;13.88;66.71
67840;BME280;54636;51.684;5.142;2022-09-02T05:40:49;101559.88;;;13.87;66.98
67840;BME280;54636;51.684;5.142;2022-09-02T05:43:15;101566.63;;;13.91;67.27
67840;BME280;54636;51.684;5.142;2022-09-02T05:45:40;101562.66;;;13.92;67.09
67840;BME280;54636;51.684;5.142;2022-09-02T05:48:05;101559.22;;;13.97;67.29
67840;BME280;54636;51.684;5.142;2022-09-02T05:50:51;101563.28;;;14.07;66.96
67840;BME280;54636;51.684;5.142;2022-09-02T05:53:16;101564.28;;;14.10;66.79
67840;BME280;54636;51.684;5.142;2022-09-02T05:55:42;101567.88;;;14.27;67.14
67840;BME280;54636;51.684;5.142;2022-09-02T05:58:08;101566.44;;;14.37;66.43
67840;BME280;54636;51.684;5.142;2022-09-02T06:00:33;101566.47;;;14.43;66.56
67840;BME280;54636;51.684;5.142;2022-09-02T06:02:58;101564.50;;;14.43;66.46
67840;BME280;54636;51.684;5.142;2022-09-02T06:05:24;101551.34;;;14.47;66.57
67840;BME280;54636;51.684;5.142;2022-09-02T06:07:49;101552.13;;;14.54;66.92
67840;BME280;54636;51.684;5.142;2022-09-02T06:10:15;101567.31;;;14.60;66.74
67840;BME280;54636;51.684;5.142;2022-09-02T06:12:40;101561.84;;;14.60;66.54
67840;BME280;54636;51.684;5.142;2022-09-02T06:15:07;101516.97;;;14.30;66.60
67840;BME280;54636;51.684;5.142;2022-09-02T06:17:32;101547.19;;;14.58;67.15
67840;BME280;54636;51.684;5.142;2022-09-02T06:19:58;101542.47;;;14.58;66.49
67840;BME280;54636;51.684;5.142;2022-09-02T06:22:23;101560.41;;;14.70;66.60
67840;BME280;54636;51.684;5.142;2022-09-02T06:24:48;101565.16;;;14.75;66.34
67840;BME280;54636;51.684;5.142;2022-09-02T06:27:14;101544.75;;;14.71;66.64
67840;BME280;54636;51.684;5.142;2022-09-02T06:29:39;101538.81;;;14.78;66.57
67840;BME280;54636;51.684;5.142;2022-09-02T06:32:05;101558.25;;;14.97;66.74
67840;BME280;54636;51.684;5.142;2022-09-02T06:34:30;101537.88;;;15.03;66.59
67840;BME280;54636;51.684;5.142;2022-09-02T06:36:55;101554.09;;;15.24;65.95
67840;BME280;54636;51.684;5.142;2022-09-02T06:39:22;101545.16;;;15.34;65.27
67840;BME280;54636;51.684;5.142;2022-09-02T06:41:50;101564.84;;;15.55;65.29
67840;BME280;54636;51.684;5.142;2022-09-02T06:44:19;101538.72;;;15.54;65.21
67840;BME280;54636;51.684;5.142;2022-09-02T06:46:54;101551.44;;;15.74;65.19
67840;BME280;54636;51.684;5.142;2022-09-02T06:49:21;101549.94;;;15.84;64.13
67840;BME280;54636;51.684;5.142;2022-09-02T06:51:48;101553.16;;;15.99;64.15
67840;BME280;54636;51.684;5.142;2022-09-02T06:54:17;101544.69;;;16.03;63.87
67840;BME280;54636;51.684;5.142;2022-09-02T06:56:44;101550.16;;;16.14;64.34
67840;BME280;54636;51.684;5.142;2022-09-02T06:59:10;101549.88;;;16.23;64.15
67840;BME280;54636;51.684;5.142;2022-09-02T07:01:35;101536.69;;;16.10;64.06
67840;BME280;54636;51.684;5.142;2022-09-02T07:04:01;101544.41;;;16.23;64.50
67840;BME280;54636;51.684;5.142;2022-09-02T07:06:48;101553.81;;;16.39;64.24
67840;BME280;54636;51.684;5.142;2022-09-02T07:09:16;101547.31;;;16.42;63.86
67840;BME280;54636;51.684;5.142;2022-09-02T07:11:43;101536.59;;;16.44;64.74
67840;BME280;54636;51.684;5.142;2022-09-02T07:14:17;101548.50;;;16.69;65.42
67840;BME280;54636;51.684;5.142;2022-09-02T07:16:46;101524.03;;;16.76;63.69
67840;BME280;54636;51.684;5.142;2022-09-02T07:19:12;101537.84;;;17.01;63.45
67840;BME280;54636;51.684;5.142;2022-09-02T07:21:38;101542.06;;;17.07;62.10
67840;BME280;54636;51.684;5.142;2022-09-02T07:24:06;101540.97;;;17.22;63.06
67840;BME280;54636;51.684;5.142;2022-09-02T07:26:32;101527.75;;;17.20;62.31
67840;BME280;54636;51.684;5.142;2022-09-02T07:28:58;101540.88;;;17.38;61.41
67840;BME280;54636;51.684;5.142;2022-09-02T07:31:24;101533.88;;;17.37;61.00
67840;BME280;54636;51.684;5.142;2022-09-02T07:33:51;101526.88;;;17.42;61.54
67840;BME280;54636;51.684;5.142;2022-09-02T07:36:17;101537.25;;;17.55;60.31
67840;BME280;54636;51.684;5.142;2022-09-02T07:38:46;101524.31;;;17.50;60.53
67840;BME280;54636;51.684;5.142;2022-09-02T07:41:14;101534.38;;;17.71;60.22
67840;BME280;54636;51.684;5.142;2022-09-02T07:43:40;101535.53;;;17.82;59.63
67840;BME280;54636;51.684;5.142;2022-09-02T07:46:06;101540.88;;;17.98;60.01
67840;BME280;54636;51.684;5.142;2022-09-02T07:48:33;101531.59;;;18.01;59.34
67840;BME280;54636;51.684;5.142;2022-09-02T07:50:59;101521.59;;;18.04;58.74
67840;BME280;54636;51.684;5.142;2022-09-02T07:53:25;101531.97;;;18.17;58.63
67840;BME280;54636;51.684;5.142;2022-09-02T07:55:51;101536.06;;;18.29;59.68
67840;BME280;54636;51.684;5.142;2022-09-02T07:58:18;101541.25;;;18.32;59.11
67840;BME280;54636;51.684;5.142;2022-09-02T08:00:45;101538.97;;;18.36;58.59
67840;BME280;54636;51.684;5.142;2022-09-02T08:03:12;101524.38;;;18.23;59.12
67840;BME280;54636;51.684;5.142;2022-09-02T08:05:38;101539.94;;;18.39;58.15
67840;BME280;54636;51.684;5.142;2022-09-02T08:08:05;101536.63;;;18.46;57.79
67840;BME280;54636;51.684;5.142;2022-09-02T08:10:31;101512.16;;;18.42;58.00
67840;BME280;54636;51.684;5.142;2022-09-02T08:12:58;101528.41;;;18.65;57.00
67840;BME280;54636;51.684;5.142;2022-09-02T08:15:27;101535.41;;;18.85;57.88
67840;BME280;54636;51.684;5.142;2022-09-02T08:17:53;101533.81;;;19.08;56.90
67840;BME280;54636;51.684;5.142;2022-09-02T08:20:19;101526.81;;;19.26;56.63
67840;BME280;54636;51.684;5.142;2022-09-02T08:22:44;101507.88;;;19.35;55.33
67840;BME280;54636;51.684;5.142;2022-09-02T08:25:10;101516.66;;;19.66;55.28
67840;BME280;54636;51.684;5.142;2022-09-02T08:27:36;101519.88;;;19.83;54.59
67840;BME280;54636;51.684;5.142;2022-09-02T08:30:03;101525.09;;;20.00;55.39
67840;BME280;54636;51.684;5.142;2022-09-02T08:32:30;101502.06;;;20.11;54.08
67840;BME280;54636;51.684;5.142;2022-09-02T08:34:57;101525.09;;;20.39;53.28
67840;BME280;54636;51.684;5.142;2022-09-02T08:37:23;101516.47;;;20.56;52.91
67840;BME280;54636;51.684;5.142;2022-09-02T08:39:48;101504.25;;;20.65;52.80
67840;BME280;54636;51.684;5.142;2022-09-02T08:42:23;101515.84;;;20.84;52.80
67840;BME280;54636;51.684;5.142;2022-09-02T08:44:58;101515.94;;;20.92;51.91
67840;BME280;54636;51.684;5.142;2022-09-02T08:47:27;101521.53;;;20.99;51.77
67840;BME280;54636;51.684;5.142;2022-09-02T08:49:58;101498.09;;;20.93;52.00
67840;BME280;54636;51.684;5.142;2022-09-02T08:52:27;101519.72;;;21.02;51.81
67840;BME280;54636;51.684;5.142;2022-09-02T08:54:54;101511.19;;;21.13;51.41
67840;BME280;54636;51.684;5.142;2022-09-02T08:57:21;101508.94;;;21.25;51.31
67840;BME280;54636;51.684;5.142;2022-09-02T08:59:49;101514.44;;;21.46;51.08
67840;BME280;54636;51.684;5.142;2022-09-02T09:03:01;101504.59;;;21.58;51.28
67840;BME280;54636;51.684;5.142;2022-09-02T09:18:53;101506.44;;;22.05;50.52
67840;BME280;54636;51.684;5.142;2022-09-02T09:21:22;101517.25;;;22.31;48.60
67840;BME280;54636;51.684;5.142;2022-09-02T09:23:51;101513.78;;;22.38;48.09
67840;BME280;54636;51.684;5.142;2022-09-02T09:26:21;101517.50;;;22.48;48.61
67840;BME280;54636;51.684;5.142;2022-09-02T09:28:48;101513.69;;;22.59;47.31
67840;BME280;54636;51.684;5.142;2022-09-02T09:31:19;101486.88;;;22.46;50.12
67840;BME280;54636;51.684;5.142;2022-09-02T09:39:25;101508.44;;;22.91;47.89
67840;BME280;54636;51.684;5.142;2022-09-02T09:42:00;101494.56;;;22.91;47.09
67840;BME280;54636;51.684;5.142;2022-09-02T09:44:44;101505.50;;;23.12;47.47
67840;BME280;54636;51.684;5.142;2022-09-02T09:47:20;101493.50;;;23.10;47.51
67840;BME280;54636;51.684;5.142;2022-09-02T09:49:52;101502.03;;;23.27;46.80
67840;BME280;54636;51.684;5.142;2022-09-02T09:52:23;101500.91;;;23.22;47.64
67840;BME280;54636;51.684;5.142;2022-09-02T09:57:41;101499.81;;;23.33;46.13
67840;BME280;54636;51.684;5.142;2022-09-02T10:00:28;101514.00;;;23.45;47.60
67840;BME280;54636;51.684;5.142;2022-09-02T10:02:59;101504.44;;;23.38;46.68
67840;BME280;54636;51.684;5.142;2022-09-02T10:05:34;101509.06;;;23.36;46.52
67840;BME280;54636;51.684;5.142;2022-09-02T10:10:56;101495.00;;;23.26;45.69
67840;BME280;54636;51.684;5.142;2022-09-02T10:13:25;101476.50;;;23.06;45.70
67840;BME280;54636;51.684;5.142;2022-09-02T10:18:48;101490.38;;;23.36;45.94
67840;BME280;54636;51.684;5.142;2022-09-02T10:24:07;101482.41;;;23.71;45.79
67840;BME280;54636;51.684;5.142;2022-09-02T10:26:45;101480.31;;;24.02;45.72
67840;BME280;54636;51.684;5.142;2022-09-02T10:29:43;101479.50;;;24.32;44.85
67840;BME280;54636;51.684;5.142;2022-09-02T10:37:23;101462.97;;;24.74;44.09
67840;BME280;54636;51.684;5.142;2022-09-02T10:50:38;101455.97;;;25.22;42.58
67840;BME280;54636;51.684;5.142;2022-09-02T10:56:14;101449.97;;;25.51;41.08
67840;BME280;54636;51.684;5.142;2022-09-02T10:58:46;101459.88;;;25.61;40.96
67840;BME280;54636;51.684;5.142;2022-09-02T11:01:19;101446.13;;;25.64;40.76
67840;BME280;54636;51.684;5.142;2022-09-02T11:04:07;101439.44;;;25.67;40.83
67840;BME280;54636;51.684;5.142;2022-09-02T11:06:39;101446.81;;;25.72;41.01
67840;BME280;54636;51.684;5.142;2022-09-02T11:09:26;101441.50;;;25.66;40.08
67840;BME280;54636;51.684;5.142;2022-09-02T11:11:57;101444.91;;;25.57;39.95
67840;BME280;54636;51.684;5.142;2022-09-02T11:14:39;101437.69;;;25.54;38.23
67840;BME280;54636;51.684;5.142;2022-09-02T11:17:28;101434.56;;;25.50;39.75
67840;BME280;54636;51.684;5.142;2022-09-02T11:20:21;101417.56;;;25.46;38.02
67840;BME280;54636;51.684;5.142;2022-09-02T11:26:17;101418.84;;;25.70;39.06
67840;BME280;54636;51.684;5.142;2022-09-02T11:28:53;101418.34;;;25.81;38.68
67840;BME280;54636;51.684;5.142;2022-09-02T11:34:30;101409.41;;;25.82;37.83
67840;BME280;54636;51.684;5.142;2022-09-02T11:37:04;101411.06;;;25.68;37.64
67840;BME280;54636;51.684;5.142;2022-09-02T11:39:36;101408.59;;;25.72;37.94
67840;BME280;54636;51.684;5.142;2022-09-02T11:42:09;101406.16;;;25.76;37.42
67840;BME280;54636;51.684;5.142;2022-09-02T11:48:14;101408.69;;;25.82;36.68
67840;BME280;54636;51.684;5.142;2022-09-02T11:53:28;101382.75;;;25.79;35.99
67840;BME280;54636;51.684;5.142;2022-09-02T11:56:04;101367.84;;;25.84;35.46
67840;BME280;54636;51.684;5.142;2022-09-02T11:58:44;101385.13;;;26.10;35.14
67840;BME280;54636;51.684;5.142;2022-09-02T12:01:32;101379.78;;;26.21;36.03
67840;BME280;54636;51.684;5.142;2022-09-02T12:04:16;101378.31;;;26.20;34.93
67840;BME280;54636;51.684;5.142;2022-09-02T12:09:53;101383.53;;;26.34;34.34
67840;BME280;54636;51.684;5.142;2022-09-02T12:15:02;101381.63;;;26.36;32.31
67840;BME280;54636;51.684;5.142;2022-09-02T12:23:09;101368.78;;;26.23;34.42
67840;BME280;54636;51.684;5.142;2022-09-02T12:25:40;101360.25;;;26.39;31.75
67840;BME280;54636;51.684;5.142;2022-09-02T12:28:14;101339.91;;;26.46;32.51
67840;BME280;54636;51.684;5.142;2022-09-02T12:33:36;101353.28;;;26.57;31.23
67840;BME280;54636;51.684;5.142;2022-09-02T12:36:03;101353.72;;;26.53;31.80
67840;BME280;54636;51.684;5.142;2022-09-02T12:38:30;101357.41;;;26.66;30.69
67840;BME280;54636;51.684;5.142;2022-09-02T12:46:42;101350.84;;;26.80;30.73
67840;BME280;54636;51.684;5.142;2022-09-02T12:55:02;101330.31;;;26.85;31.37
67840;BME280;54636;51.684;5.142;2022-09-02T12:57:42;101339.13;;;26.91;29.79
67840;BME280;54636;51.684;5.142;2022-09-02T13:00:13;101320.94;;;26.81;29.44
67840;BME280;54636;51.684;5.142;2022-09-02T13:06:10;101324.91;;;26.87;30.52
67840;BME280;54636;51.684;5.142;2022-09-02T13:08:49;101310.03;;;26.66;30.75
67840;BME280;54636;51.684;5.142;2022-09-02T13:19:42;101323.38;;;26.57;30.91
67840;BME280;54636;51.684;5.142;2022-09-02T13:33:40;101308.84;;;26.49;30.06
67840;BME280;54636;51.684;5.142;2022-09-02T13:36:06;101312.09;;;26.65;30.95
67840;BME280;54636;51.684;5.142;2022-09-02T13:38:32;101316.78;;;26.72;30.51
67840;BME280;54636;51.684;5.142;2022-09-02T13:40:58;101313.00;;;26.77;29.77
67840;BME280;54636;51.684;5.142;2022-09-02T13:43:25;101309.50;;;26.86;28.72
67840;BME280;54636;51.684;5.142;2022-09-02T13:45:53;101295.41;;;26.84;28.56
67840;BME280;54636;51.684;5.142;2022-09-02T13:48:22;101307.63;;;26.99;29.52
67840;BME280;54636;51.684;5.142;2022-09-02T13:50:54;101283.28;;;26.99;29.33
67840;BME280;54636;51.684;5.142;2022-09-02T13:53:32;101304.00;;;27.25;28.12
67840;BME280;54636;51.684;5.142;2022-09-02T13:55:58;101268.31;;;27.14;29.12
67840;BME280;54636;51.684;5.142;2022-09-02T14:00:52;101283.16;;;27.26;28.93
67840;BME280;54636;51.684;5.142;2022-09-02T14:03:20;101286.09;;;27.18;29.67
67840;BME280;54636;51.684;5.142;2022-09-02T14:05:50;101286.97;;;27.11;29.18
67840;BME280;54636;51.684;5.142;2022-09-02T14:08:26;101287.25;;;27.06;29.01
67840;BME280;54636;51.684;5.142;2022-09-02T14:10:53;101268.56;;;26.79;29.58
67840;BME280;54636;51.684;5.142;2022-09-02T14:13:20;101266.78;;;26.74;28.92
67840;BME280;54636;51.684;5.142;2022-09-02T14:15:46;101269.00;;;26.85;29.04
67840;BME280;54636;51.684;5.142;2022-09-02T14:18:13;101266.81;;;26.84;29.08
67840;BME280;54636;51.684;5.142;2022-09-02T14:21:15;101259.63;;;26.81;29.81
67840;BME280;54636;51.684;5.142;2022-09-02T14:23:50;101250.22;;;26.86;29.46
67840;BME280;54636;51.684;5.142;2022-09-02T14:26:43;101252.88;;;26.94;29.54
67840;BME280;54636;51.684;5.142;2022-09-02T14:29:18;101253.94;;;26.98;29.61
67840;BME280;54636;51.684;5.142;2022-09-02T14:31:46;101243.03;;;26.92;29.22
67840;BME280;54636;51.684;5.142;2022-09-02T14:34:43;101242.78;;;26.98;28.74
67840;BME280;54636;51.684;5.142;2022-09-02T14:37:23;101241.41;;;26.80;29.41
67840;BME280;54636;51.684;5.142;2022-09-02T14:40:14;101242.00;;;26.78;29.09
67840;BME280;54636;51.684;5.142;2022-09-02T14:42:50;101229.38;;;26.68;29.49
67840;BME280;54636;51.684;5.142;2022-09-02T14:45:30;101244.94;;;26.61;29.02
67840;BME280;54636;51.684;5.142;2022-09-02T14:47:58;101229.66;;;26.52;30.22
67840;BME280;54636;51.684;5.142;2022-09-02T14:50:28;101232.59;;;26.54;29.80
67840;BME280;54636;51.684;5.142;2022-09-02T14:52:56;101229.25;;;26.56;30.28